»·PEaware :: N718BK KRNM-KONT

N718BK :: KRNM-KONT

FLIGHT INFORMATION

Flight Status: Arrived
Operator: Privately registered:
United States
More flights under this callsign
Pilot: Manhattan Flying Club (7137)
Aircraft: CESSNA 172 SKYHAWK
(C172)
More flights by this aircraft type
Origin: KRNM Ramona
United States
Destination: KONT Ontario Intl
United States
More flights between these airports :: More routes between these airports
Route: +ROBNN OCN V23 DANAH V363 POXKU V8 PDZ
File this flight plan on PilotEdge
Remarks: TEC SANN19
Altitude:
(Current/Filed)
6,000ft
Speed:
(Current/Filed)
115kts
Departed: 16-May-18 10:39 AM
Arrived: 16-May-18 11:44 AM
Distance/Time
Traveled:
70nm/1:05
Distance/Time
To Go:
Arrived

Flight Plot

Page will automatically refresh every two minutes.


Map Options




Map Legend


Flown Route
Filed Route
Departure Airport
Arrival Airport
Navaid (VOR, NDB)
Fix

Horizontal Profiles

Position Reports

Time Latitude Longitude Heading Altitude Ground
Speed
16-May-18 10:23 33.039292 -116.908038 275 1398ft 0kts
16-May-18 10:24 33.039292 -116.908038 275 1398ft 0kts
16-May-18 10:25 33.039292 -116.908038 275 1398ft 0kts
16-May-18 10:26 33.039292 -116.908038 275 1398ft 0kts
16-May-18 10:27 33.039292 -116.908038 275 1398ft 0kts
16-May-18 10:28 33.039292 -116.908038 275 1398ft 0kts
16-May-18 10:29 33.039292 -116.908038 275 1398ft 0kts
16-May-18 10:30 33.039292 -116.908038 275 1398ft 0kts
16-May-18 10:31 33.039292 -116.908038 275 1398ft 0kts
16-May-18 10:32 33.039292 -116.908038 275 1398ft 0kts
16-May-18 10:33 33.039292 -116.908038 275 1398ft 0kts
16-May-18 10:34 33.039292 -116.908038 275 1398ft 0kts
16-May-18 10:35 33.039292 -116.908038 275 1398ft 0kts
16-May-18 10:36 33.038745 -116.907742 103 1398ft 8kts
16-May-18 10:37 33.038591 -116.907503 158 1398ft 0kts
16-May-18 10:38 33.038093 -116.908098 280 1398ft 13kts
16-May-18 10:39 33.041270 -116.930280 282 1970ft 80kts
16-May-18 10:40 33.047186 -116.955039 313 2846ft 79kts
16-May-18 10:41 33.061732 -116.974570 313 3700ft 79kts
16-May-18 10:42 33.073686 -116.996201 291 4502ft 80kts
16-May-18 10:43 33.081310 -117.020395 296 5320ft 77kts
16-May-18 10:44 33.090309 -117.044112 299 5968ft 90kts
16-May-18 10:45 33.104637 -117.074003 298 6034ft 113kts
16-May-18 10:46 33.116770 -117.107561 290 6043ft 111kts
16-May-18 10:47 33.127501 -117.141868 295 6099ft 107kts
16-May-18 10:48 33.141255 -117.174042 300 6052ft 113kts
16-May-18 10:49 33.156295 -117.206740 298 6059ft 116kts
16-May-18 10:50 33.170052 -117.241684 296 6046ft 118kts
16-May-18 10:51 33.185247 -117.275982 299 5983ft 119kts
16-May-18 10:52 33.198239 -117.311745 290 5983ft 117kts
16-May-18 10:53 33.209854 -117.347995 294 5982ft 117kts
16-May-18 10:54 33.224797 -117.382388 301 5994ft 116kts
16-May-18 10:55 33.239763 -117.416741 298 6005ft 117kts
16-May-18 10:56 33.262902 -117.443648 315 6030ft 116kts
16-May-18 10:57 33.286215 -117.470679 315 6008ft 117kts
16-May-18 10:58 33.309451 -117.497738 315 6008ft 116kts
16-May-18 10:59 33.332724 -117.524869 315 6008ft 116kts
16-May-18 11:00 33.355653 -117.552005 313 6019ft 116kts
16-May-18 11:01 33.377360 -117.581004 309 6022ft 116kts
16-May-18 11:02 33.399989 -117.609055 316 6043ft 116kts
16-May-18 11:03 33.424301 -117.635457 316 5995ft 118kts
16-May-18 11:04 33.447847 -117.662765 313 5992ft 118kts
16-May-18 11:05 33.473281 -117.687674 319 6003ft 120kts
16-May-18 11:06 33.506027 -117.698906 351 5903ft 130kts
16-May-18 11:07 33.542083 -117.700352 350 5306ft 132kts
16-May-18 11:08 33.578056 -117.708080 344 5010ft 131kts
16-May-18 11:09 33.613834 -117.716829 349 5015ft 130kts
16-May-18 11:10 33.650104 -117.721823 352 5005ft 130kts
16-May-18 11:11 33.684455 -117.732559 337 5001ft 126kts
16-May-18 11:12 33.717268 -117.747241 332 4992ft 126kts
16-May-18 11:13 33.749600 -117.762593 334 5010ft 125kts
16-May-18 11:14 33.781948 -117.777492 348 5035ft 126kts
16-May-18 11:15 33.816851 -117.777348 356 5039ft 128kts
16-May-18 11:16 33.851287 -117.776047 22 5038ft 129kts
16-May-18 11:17 33.864104 -117.736256 75 5037ft 130kts
16-May-18 11:18 33.873204 -117.694325 67 5064ft 128kts
16-May-18 11:19 33.883320 -117.653101 70 5061ft 127kts
16-May-18 11:20 33.893204 -117.612308 72 5082ft 126kts
16-May-18 11:21 33.903034 -117.571414 68 5089ft 127kts
16-May-18 11:22 33.914949 -117.531471 66 5070ft 128kts
16-May-18 11:23 33.929589 -117.492787 61 5099ft 125kts
16-May-18 11:24 33.945715 -117.454971 58 5086ft 126kts
16-May-18 11:25 33.963631 -117.417830 58 4963ft 134kts
16-May-18 11:26 33.979954 -117.376274 62 4419ft 135kts
16-May-18 11:27 33.995866 -117.336776 61 4182ft 124kts
16-May-18 11:28 34.012577 -117.299469 59 4200ft 129kts
16-May-18 11:29 34.030358 -117.261740 58 4222ft 130kts
16-May-18 11:30 34.048181 -117.223565 59 4247ft 130kts
16-May-18 11:31 34.073577 -117.192948 38 4250ft 131kts
16-May-18 11:32 34.093412 -117.205039 259 4226ft 111kts
16-May-18 11:33 34.083110 -117.240644 237 4238ft 113kts
16-May-18 11:34 34.067099 -117.273728 241 4278ft 114kts
16-May-18 11:35 34.056675 -117.309755 259 4223ft 117kts
16-May-18 11:36 34.055402 -117.348700 266 4243ft 119kts
16-May-18 11:37 34.055084 -117.387890 271 3967ft 114kts
16-May-18 11:38 34.055051 -117.426079 270 3524ft 110kts
16-May-18 11:39 34.054913 -117.458524 268 3084ft 95kts
16-May-18 11:40 34.054546 -117.491560 271 2560ft 101kts
16-May-18 11:41 34.054823 -117.525561 270 1949ft 103kts
16-May-18 11:42 34.054882 -117.558813 270 1406ft 102kts
16-May-18 11:43 34.055023 -117.586662 275 946ft 50kts
16-May-18 11:44 34.054064 -117.594264 238 946ft 0kts
16-May-18 11:45 34.054059 -117.594274 237 946ft 0kts
16-May-18 11:46 34.053891 -117.594755 256 946ft 11kts
16-May-18 11:47 34.053845 -117.598048 271 946ft 16kts
16-May-18 11:48 34.053841 -117.604311 270 946ft 19kts
16-May-18 11:49 34.053835 -117.611148 269 946ft 20kts
16-May-18 11:50 34.051574 -117.612661 154 946ft 0kts

Navigation Log

Ident Type
1. KRNM Airport
2. ROBNN Fix
3. OCN Navaid
4. KELPS Fix
5. DANAH Fix
6. DANAH Fix
7. ELB Navaid
8. WOKRO Fix
9. JOGIT Fix
10. POXKU Fix
11. POXKU Fix
12. EBITE Fix
13. PDZ Navaid
14. KONT Airport